Saturday, August 24, 2019, 3:44 AM EDT
Back to Local

KWRI, Mcguire Air Force Base

Location: Trenton, NJ, United States Lat: 40.017
Local Time: 3:44 AM EDT ( 7:44 GMT) Lon: -74.6
Time Zone: US/Eastern Elev: 134 ft

Show me the last for .
Show Decoded

2019-08-24 02:56 METAR KWRI 240656Z AUTO 34006KT 10SM CLR 15/13 A3007 RMK AO2 SLPNO T01520134 $ =
2019-08-24 01:56 METAR KWRI 240556Z AUTO 35004KT 10SM CLR 16/14 A3006 RMK AO2 SLP179 T01570139
                 10198 20157 58000 $ =
2019-08-24 00:56 METAR KWRI 240456Z AUTO 34007KT 10SM CLR 16/14 A3007 RMK AO2 SLP182 T01620144
                 402090162 $ =
2019-08-23 23:56 METAR KWRI 240356Z AUTO 33004KT 10SM CLR 17/15 A3007 RMK AO2 SLP182 T01730147
                 TSNO $ =
2019-08-23 22:56 METAR KWRI 240256Z AUTO 31005KT 10SM CLR 18/16 A3006 RMK AO2 SLP178 T01810157
                 52019 TSNO $ =
2019-08-23 21:56 METAR KWRI 240156Z AUTO 31005KT 10SM CLR 19/17 A3004 RMK AO2 SLP172 T01900171 $
                 =
2019-08-23 20:56 METAR KWRI 240056Z 29004KT 10SM CLR 20/18 A3002 RMK AO2A SLP165 T01960181 $ =
2019-08-23 19:56 METAR KWRI 232356Z 33003KT 10SM BKN200 20/18 A3001 RMK AO2A SLP161 60001
                 T01960179 10209 20193 55002 $ =
2019-08-23 18:56 METAR KWRI 232256Z AUTO 00000KT 10SM SCT200 21/18 A3000 RMK AO2 SLP158 T02070179
                 $ =
2019-08-23 17:56 METAR KWRI 232156Z AUTO 34005KT 10SM CLR 21/18 A2999 RMK AO2 SLPNO =
2019-08-23 16:56 METAR KWRI 232056Z 32005KT 10SM FEW050 SCT130 OVC180 21/18 A3001 RMK AO2A
                 RAB12E36 SLPNO P0000 60001 T02050177 $ =
2019-08-23 16:36 METAR KWRI 232036Z 33004KT 10SM SCT050 OVC100 20/18 A3000 RMK AO2A RAB12E36
                 SLPNO $ =
2019-08-23 16:12 METAR KWRI 232012Z 32006KT 10SM -RA BKN048 20/17 A3001 RMK AO2A RAB12 SLPNO $ =
2019-08-23 15:56 METAR KWRI 231956Z 34004KT 10SM BKN046 OVC100 20/17 A3000 RMK AO2A RAE44 SLPNO
                 T02010165 $ =
2019-08-23 15:44 METAR KWRI 231944Z 00000KT 10SM SCT046 OVC100 20/17 A3000 RMK AO2A RAE44 SLPNO $
                 =
2019-08-23 15:12 METAR KWRI 231912Z COR 31005KT 10SM -RA BKN043 19/17 A3001 RMK SLPNO $ COR 1916
                 =
2019-08-23 14:56 METAR KWRI 231856Z 29005KT 10SM -RA BKN043 OVC100 20/17 A3001 RMK AO2A RAE20B24
                 SLPNO WND DATA ESTMD ALSTG ESTMD $ =
2019-08-23 14:24 METAR KWRI 231824Z 00000KT 10SM -RA BKN043 19/16 A2999 RMK AO2A RAE20RAB24 SLPNO
                 RVRNO $ =
2019-08-23 14:20 METAR KWRI 231820Z AUTO 00000KT 10SM BKN043 M A3000 RMK AO2 RAE20 SLPNO ALSTG
                 ESTMD RVRNO $ =
2019-08-23 13:56 METAR KWRI 231756Z AUTO 30003KT 10SM -RA OVC039 18/15 A3001 RMK AO2
                 RAE1656DZB1656E1657RAB1657E07RAB16 SLPNO P0001 60002 T01830150 10209 20182 55004
                 $ =
2019-08-23 13:16 METAR KWRI 231716Z AUTO 00000KT 10SM -RA BKN032 19/14 A3001 RMK AO2
                 RAE1656DZB1656E1657RAB1657E07RAB16 SLPNO $ =
2019-08-23 13:07 METAR KWRI 231707Z AUTO 00000KT 10SM FEW020 SCT033 19/14 A3000 RMK AO2
                 RAE1656DZB1656E1657RAB1657E07 SLPNO $ =
2019-08-23 12:56 METAR KWRI 231656Z AUTO 01004KT 10SM -RA SCT028 SCT033 18/15 A3000 RMK AO2 RAB03
                 SLPNO P0001 T01820147 $ =
2019-08-23 12:48 METAR KWRI 231648Z AUTO 02008KT 10SM -RA SCT028 BKN033 18/15 A3000 RMK AO2 RAB03
                 SLPNO $ =
2019-08-23 12:43 METAR KWRI 231643Z AUTO 32010KT 10SM -RA BKN029 BKN033 19/16 A3001 RMK AO2 RAB03
                 SLPNO $ =
2019-08-23 12:03 METAR KWRI 231603Z AUTO 35007KT 10SM -RA BKN045 20/14 A3001 RMK AO2 RAB03 SLPNO
                 $ =
2019-08-23 11:56 METAR KWRI 231556Z AUTO 34008KT 10SM OVC045 20/15 A3001 RMK AO2 SLPNO T02040145
                 $ =
2019-08-23 10:56 METAR KWRI 231456Z AUTO 02006KT 10SM OVC039 20/15 A3002 RMK AO2 SLPNO T02000148
                 53007 $ =
2019-08-23 09:56 METAR KWRI 231356Z AUTO 35009G14KT 10SM BKN038 20/15 A3001 RMK AO2 SLPNO
                 T02020150 $ =
2019-08-23 08:56 METAR KWRI 231256Z AUTO 35008KT 10SM FEW034 20/16 A2999 RMK AO2 SLPNO T02040160
                 $ =
2019-08-23 07:56 METAR KWRI 231156Z 34008KT 10SM OVC036 20/18 A3000 RMK AO2A SLPNO 70014 =
2019-08-23 06:56 METAR KWRI 231056Z 35005KT 10SM SCT033 BKN041 21/18 A2997 RMK AO2A SLPNO =
2019-08-23 05:56 METAR KWRI 230956Z 35006KT 10SM BKN040 21/20 A2995 RMK SLPNO WND DATA ESTMD $ =
2019-08-23 04:56 METAR KWRI 230856Z 04003KT 10SM BKN040 22/21 A2991 RMK SLPNO WND DATA ESTMD $ =
2019-08-23 03:56 METAR KWRI 230756Z 34005KT 10SM FEW080 22/21 A2990 RMK SLPNO WND DATA ESTMD $ =

Support USWX by starting your Amazon purchase here.